SCELSCIP

Guest
Details From SCEL - Arturo Merino Benitez Intl
To SCIP - Mataveri Intl
Flight Number -
Tags Generated
Created
Modified
Stats Distance 2,028 nm / 3,755 km
Max Altitude 0 ft / 0 m
Waypoints 3
Social Downloads 25
Likes 0
Share VATSIM

Download

Looking for another format? Having issues loading an existing format? Contact us
Advertisement - Login to hide

Notes

Generated

Route

SCEL IPA SCIP

ID Type Via Altitude Latitude Longitude Leg Dist Tot Dist Heading (true) Name
O SCEL APT - 0 ft / 0 m -33.37608˚ -70.78671˚ - 0 nm - -
IPA VOR - 0 ft / 0 m -27.16389˚ -109.40583˚ 2025 nm 2025 nm 270° / 290° ISLA DE PASCUA VOR-DME
O SCIP APT - 0 ft / 0 m -27.15796˚ -109.43667˚ 1 nm 2027 nm 282° / 282° -

Altitude Profile

Advertisement - Login to hide

Weather


0- 5 10 15 20 25 30 35+ Temperature / ° C

Clouds and Precipitation
Forecast for 2018-05-25 06:00 UTC. Updated 16 minutes ago

Ground ~20,000 ft ~40,000 ft Winds

SCEL

Details ICAO SCEL (SCL)
Name Arturo Merino Benitez Intl
Region Chile
Timezone America/Santiago (UTC-4.0)
Stats Elevation 1,550 ft / 472 m (AMSL)
Location -33.389775° -70.794366°
Runways 2
Magnetic Variation 1.733° E

METAR

SCEL 250500Z VRB02KT 8000 NSC 08/M02 Q1017 NOSIG

Decode

TAF

TAF SCEL 242239Z 2500/2600 18004KT CAVOK TX24/2519Z TN04/2511Z BECMG 2502/2504 VRB02KT BECMG 2504/2506 8000 NSC TEMPO 2507/2513 5000 HZ BECMG 2516/2518 16004KT BECMG 2517/2519 18008KT CAVOK

Decode

Departure Runways

ID Width Length Bearing (true) Bearing (mag) Surface Threshold Offset Overrun Length
17L 180 ft / 55 m 10,523 ft / 3,207 m 177.43° 175.70° Asphalt 0 ft / 0 m 0 ft / 0 m
17R 148 ft / 45 m 12,504 ft / 3,811 m 177.44° 175.71° Asphalt 0 ft / 0 m 0 ft / 0 m
35L 148 ft / 45 m 12,504 ft / 3,811 m 357.44° 355.71° Asphalt 0 ft / 0 m 0 ft / 0 m
35R 180 ft / 55 m 10,523 ft / 3,207 m 357.43° 355.70° Asphalt 1,800 ft / 549 m 0 ft / 0 m

SCIP

Details ICAO SCIP (IPC)
Name Mataveri Intl
Region Chile
Timezone Pacific/Easter (UTC-6.0)
Stats Elevation 227 ft / 69 m (AMSL)
Location -27.164790° -109.421829°
Runways 1
Magnetic Variation 15.089° E

METAR

SCIP 250500Z 13007KT 9999 FEW020 SCT060 18/13 Q1021 NOSIG

Decode

TAF

TAF SCIP 242242Z 2500/2600 14010KT 9999 FEW020 SCT030 TN16/2510Z TX22/2520Z BECMG 2502/2504 11007KT TEMPO 2508/2512 08012KT 7000 -SHRA BKN020 BECMG 2516/2518 07012KT FEW020 SCT040 SCT250 TEMPO 2519/2600 04017KT 5000 SHRA SCT018 BKN030

Decode

Destination Runways

ID Width Length Bearing (true) Bearing (mag) Surface Threshold Offset Overrun Length
10 145 ft / 44 m 10,848 ft / 3,306 m 117.35° 102.26° Asphalt 0 ft / 0 m 355 ft / 108 m
28 145 ft / 44 m 10,848 ft / 3,306 m 297.33° 282.24° Asphalt 0 ft / 0 m 95 ft / 29 m

Approach Navaids

Runway Type Ident Frequency Range Bearing (true) Bearing (mag) Slope Elevation
10 Localiser IIPA 110.30 MHz 18 nm / 33 km 119.21° 104.12° - 127 ft / 39 m (AMSL)
10 Glidescope IIPA 110.30 MHz 10 nm / 19 km 117.34° 102.25° 2.50° 148 ft / 45 m (AMSL)

Popular Alternatives